WXM80 ListenWXM80 Stop

You find our weather info also at:

UK Metoffice

WeatherCloud

Weather Underground

Northeastern Weather Network

AWEKAS

Citizen Weather Observer Program (CWOP)

HAMweather, WeatherForYou, PWS Weather


Weather Underground History page Text

Daily Summary for January 26, 2017 Units:  English    Metric   Both
« Previous Day
Next Day »
Daily Weekly Monthly Yearly Custom
  High: Low: Average:
Temperature: 52.1 °F 42.2 °F 45.9 °F
Dew Point: 46.2 °F 30.6 °F 38.4 °F
Humidity: 93 % 53 % 76 %
Wind Speed: 16.6 mph 0.0 mph 4.4 mph
Wind Gust: 24.2 mph - -
Wind:- - WSW
Pressure: 29.53 in 29.27 in -
Precipitation: 0.01 in    
Historical Graphs
 
 
Tabular Data for January 26, 2017
Time Temperature Dew Point Pressure Wind Wind Speed Wind Gust Humidity Rainfall Rate (Hourly)
00:01 45.4 °F 38.6 °F 29.53 in South 1.2 mph 3.5 mph 77 % 0.00 in
00:06 45.6 °F 38.8 °F 29.53 in SSW 1.1 mph 6.9 mph 77 % 0.00 in
00:11 45.6 °F 38.5 °F 29.52 in SSW 2.2 mph 5.8 mph 76 % 0.00 in
00:16 45.7 °F 38.6 °F 29.52 in West 1.5 mph 6.9 mph 76 % 0.00 in
00:21 45.8 °F 38.7 °F 29.53 in SSW 3.8 mph 8.1 mph 76 % 0.00 in
00:26 45.9 °F 38.8 °F 29.52 in SW 5.6 mph 8.1 mph 76 % 0.00 in
00:31 46.0 °F 38.9 °F 29.52 in SW 4.1 mph 9.2 mph 76 % 0.00 in
00:36 46.0 °F 38.9 °F 29.52 in SW 1.7 mph 3.5 mph 76 % 0.00 in
00:41 46.0 °F 38.9 °F 29.52 in WSW 3.3 mph 6.9 mph 76 % 0.00 in
00:46 46.1 °F 39.3 °F 29.52 in SW 1.3 mph 2.3 mph 77 % 0.00 in
00:52 46.1 °F 39.3 °F 29.51 in South 0.8 mph 3.5 mph 77 % 0.00 in
00:57 46.1 °F 39.3 °F 29.51 in WSW 0.5 mph 3.5 mph 77 % 0.00 in
01:02 46.1 °F 39.3 °F 29.51 in SW 4.3 mph 8.1 mph 77 % 0.00 in
01:07 46.2 °F 39.4 °F 29.51 in WSW 3.8 mph 6.9 mph 77 % 0.00 in
01:12 46.3 °F 39.5 °F 29.51 in SSW 1.8 mph 3.5 mph 77 % 0.00 in
01:17 46.3 °F 39.5 °F 29.50 in SW 1.9 mph 3.5 mph 77 % 0.00 in
01:22 46.5 °F 39.7 °F 29.50 in SSW 2.8 mph 6.0 mph 77 % 0.00 in
01:27 46.5 °F 39.7 °F 29.50 in SSW 2.6 mph 5.0 mph 77 % 0.00 in
01:32 46.6 °F 39.8 °F 29.50 in SSW 2.8 mph 3.5 mph 77 % 0.00 in
01:37 46.7 °F 39.9 °F 29.49 in SSW 1.6 mph 3.5 mph 77 % 0.00 in
01:39 46.8 °F 40.0 °F 29.49 in SW 2.1 mph 3.5 mph 77 % 0.00 in
01:44 46.9 °F 40.1 °F 29.49 in WSW 1.4 mph 6.0 mph 77 % 0.00 in
01:49 47.1 °F 40.3 °F 29.49 in WSW 1.4 mph 6.9 mph 77 % 0.00 in
01:54 47.3 °F 40.5 °F 29.49 in WSW 3.0 mph 10.4 mph 77 % 0.00 in
01:59 47.5 °F 40.3 °F 29.49 in SW 1.5 mph 4.6 mph 76 % 0.00 in
02:04 47.6 °F 40.4 °F 29.49 in SW 0.2 mph 2.3 mph 76 % 0.00 in
02:09 47.7 °F 40.5 °F 29.49 in Calm     76 % 0.00 in
02:14 47.8 °F 40.6 °F 29.49 in SW 1.5 mph 3.5 mph 76 % 0.00 in
02:19 47.8 °F 40.6 °F 29.48 in SW 4.8 mph 9.2 mph 76 % 0.00 in
02:24 47.8 °F 40.9 °F 29.48 in SSW 2.2 mph 6.9 mph 77 % 0.00 in
02:29 47.8 °F 40.9 °F 29.48 in West 0.2 mph 3.5 mph 77 % 0.00 in
02:34 47.8 °F 40.9 °F 29.48 in South 0.6 mph 2.3 mph 77 % 0.00 in
02:39 47.7 °F 41.2 °F 29.48 in SW 3.0 mph 4.0 mph 78 % 0.00 in
02:44 47.7 °F 41.2 °F 29.47 in WSW 4.9 mph 7.0 mph 78 % 0.00 in
02:49 47.6 °F 41.4 °F 29.48 in SW 4.5 mph 5.8 mph 79 % 0.00 in
02:54 47.5 °F 41.3 °F 29.47 in SW 0.7 mph 3.5 mph 79 % 0.00 in
02:59 47.5 °F 41.3 °F 29.47 in SW 2.8 mph 5.8 mph 79 % 0.00 in
03:05 47.4 °F 41.5 °F 29.46 in WSW 4.2 mph 4.2 mph 80 % 0.00 in
03:10 47.4 °F 41.5 °F 29.46 in West 2.1 mph 5.8 mph 80 % 0.00 in
03:13 47.4 °F 41.5 °F 29.46 in WSW 1.5 mph 3.5 mph 80 % 0.00 in
03:18 47.3 °F 41.8 °F 29.45 in SW 6.2 mph 10.4 mph 81 % 0.00 in
03:23 47.2 °F 41.7 °F 29.45 in WSW 4.0 mph 9.2 mph 81 % 0.00 in
03:28 47.2 °F 42.0 °F 29.45 in SW 1.7 mph 3.5 mph 82 % 0.00 in
03:33 47.1 °F 41.9 °F 29.46 in SSW 4.7 mph 8.1 mph 82 % 0.00 in
03:38 47.1 °F 42.2 °F 29.46 in WSW 0.4 mph 3.0 mph 83 % 0.00 in
03:43 47.1 °F 42.2 °F 29.45 in SW 4.8 mph 8.0 mph 83 % 0.00 in
03:48 47.0 °F 42.4 °F 29.44 in SW 3.5 mph 8.1 mph 84 % 0.00 in
03:53 47.0 °F 42.4 °F 29.44 in SSW 1.5 mph 3.5 mph 84 % 0.00 in
03:58 46.9 °F 42.3 °F 29.43 in SW 2.0 mph 3.5 mph 84 % 0.00 in
04:03 46.8 °F 42.2 °F 29.42 in SW 2.5 mph 5.8 mph 84 % 0.00 in
04:08 46.7 °F 42.4 °F 29.42 in SW 1.0 mph 2.3 mph 85 % 0.00 in
04:13 46.6 °F 42.3 °F 29.42 in SSW 3.2 mph 6.9 mph 85 % 0.00 in
04:18 46.5 °F 42.2 °F 29.42 in SSW 4.4 mph 5.8 mph 85 % 0.00 in
04:23 46.5 °F 42.2 °F 29.42 in SSW 3.7 mph 6.0 mph 85 % 0.00 in
04:29 46.5 °F 42.2 °F 29.43 in SW 3.6 mph 6.9 mph 85 % 0.00 in
04:34 46.5 °F 42.2 °F 29.43 in SW 3.0 mph 5.8 mph 85 % 0.00 in
04:39 46.6 °F 42.0 °F 29.43 in SW 6.0 mph 8.0 mph 84 % 0.00 in
04:42 46.7 °F 42.1 °F 29.43 in SW 6.6 mph 10.4 mph 84 % 0.00 in
04:47 46.8 °F 41.9 °F 29.43 in SW 4.3 mph 6.9 mph 83 % 0.00 in
04:52 46.9 °F 42.0 °F 29.43 in SW 5.7 mph 8.1 mph 83 % 0.00 in
04:57 46.9 °F 42.0 °F 29.42 in West 3.4 mph 4.6 mph 83 % 0.00 in
05:02 47.0 °F 41.8 °F 29.42 in WNW 2.8 mph 5.8 mph 82 % 0.00 in
05:07 47.0 °F 41.8 °F 29.43 in WSW 1.8 mph 3.5 mph 82 % 0.00 in
05:12 47.0 °F 41.8 °F 29.42 in SW 0.3 mph 2.0 mph 82 % 0.00 in
05:17 47.0 °F 41.8 °F 29.42 in SW 0.9 mph 3.5 mph 82 % 0.00 in
05:18 47.0 °F 41.8 °F 29.42 in SW 1.0 mph 2.3 mph 82 % 0.00 in
05:23 47.0 °F 41.8 °F 29.41 in Calm     82 % 0.00 in
05:28 46.9 °F 41.4 °F 29.41 in NNW 0.1 mph 1.2 mph 81 % 0.00 in
05:33 46.8 °F 41.3 °F 29.41 in Calm     81 % 0.00 in
05:38 46.5 °F 41.3 °F 29.41 in NW 2.0 mph 3.5 mph 82 % 0.00 in
05:43 46.3 °F 41.1 °F 29.40 in Calm     82 % 0.00 in
05:48 45.9 °F 40.7 °F 29.41 in NW 0.3 mph 3.5 mph 82 % 0.00 in
05:53 45.5 °F 40.3 °F 29.41 in NW 1.5 mph 2.0 mph 82 % 0.00 in
05:58 45.2 °F 40.0 °F 29.41 in WNW 0.4 mph 2.3 mph 82 % 0.00 in
06:04 44.8 °F 39.6 °F 29.40 in NW 0.4 mph 2.3 mph 82 % 0.00 in
06:09 44.5 °F 39.7 °F 29.40 in NW 0.1 mph 1.0 mph 83 % 0.00 in
06:14 44.4 °F 39.5 °F 29.41 in Calm     83 % 0.00 in
06:19 44.2 °F 39.4 °F 29.41 in Calm   2.0 mph 83 % 0.00 in
06:24 44.0 °F 39.5 °F 29.42 in West 1.0 mph 3.0 mph 84 % 0.00 in
06:29 43.8 °F 39.3 °F 29.41 in Calm     84 % 0.00 in
06:34 43.8 °F 39.6 °F 29.40 in Calm     85 % 0.00 in
06:39 43.7 °F 39.5 °F 29.40 in Calm     85 % 0.00 in
06:44 43.6 °F 39.7 °F 29.41 in Calm   1.0 mph 86 % 0.00 in
06:49 43.6 °F 39.7 °F 29.40 in Calm   1.0 mph 86 % 0.00 in
06:54 43.5 °F 39.6 °F 29.40 in Calm   1.0 mph 86 % 0.00 in
06:59 43.4 °F 39.5 °F 29.40 in Calm     86 % 0.00 in
07:04 43.3 °F 39.4 °F 29.41 in Calm     86 % 0.00 in
07:09 43.3 °F 39.4 °F 29.41 in Calm     86 % 0.00 in
07:14 43.3 °F 39.7 °F 29.40 in Calm     87 % 0.00 in
07:19 43.2 °F 39.6 °F 29.41 in Calm     87 % 0.00 in
07:24 43.2 °F 39.6 °F 29.40 in Calm     87 % 0.00 in
07:29 43.1 °F 39.5 °F 29.40 in Calm     87 % 0.00 in
07:34 43.0 °F 39.4 °F 29.40 in Calm     87 % 0.00 in
07:44 42.9 °F 39.3 °F 29.39 in Calm     87 % 0.00 in
07:49 42.8 °F 39.2 °F 29.40 in Calm     87 % 0.00 in
07:54 42.7 °F 39.1 °F 29.40 in Calm     87 % 0.00 in
07:59 42.7 °F 39.4 °F 29.41 in Calm     88 % 0.00 in
08:05 42.7 °F 39.4 °F 29.41 in Calm     88 % 0.00 in
08:10 42.7 °F 39.4 °F 29.41 in Calm     88 % 0.00 in
08:15 42.7 °F 39.4 °F 29.40 in Calm     88 % 0.00 in
08:20 42.7 °F 39.4 °F 29.40 in SW 0.6 mph 1.0 mph 88 % 0.00 in
08:25 42.7 °F 39.7 °F 29.40 in Calm     89 % 0.00 in
08:30 42.8 °F 39.8 °F 29.40 in Calm     89 % 0.00 in
08:35 42.8 °F 39.8 °F 29.39 in Calm     89 % 0.00 in
08:40 42.9 °F 39.9 °F 29.39 in Calm     89 % 0.00 in
08:45 43.0 °F 40.3 °F 29.40 in Calm     90 % 0.00 in
08:50 43.1 °F 40.4 °F 29.40 in SW 1.6 mph 3.5 mph 90 % 0.00 in
08:55 43.2 °F 40.5 °F 29.40 in Calm   1.2 mph 90 % 0.00 in
09:00 43.3 °F 40.6 °F 29.41 in SW 1.0 mph 2.3 mph 90 % 0.00 in
09:05 43.4 °F 40.7 °F 29.41 in SW 1.0 mph 2.0 mph 90 % 0.00 in
09:10 43.6 °F 40.9 °F 29.41 in SSW 1.7 mph 3.0 mph 90 % 0.00 in
09:15 43.8 °F 41.1 °F 29.40 in SW 1.9 mph 3.5 mph 90 % 0.00 in
09:20 44.0 °F 41.3 °F 29.41 in SSW 0.9 mph 1.2 mph 90 % 0.00 in
09:25 44.1 °F 41.4 °F 29.40 in SSW 0.4 mph 2.3 mph 90 % 0.00 in
09:30 44.3 °F 41.6 °F 29.40 in Calm   1.2 mph 90 % 0.00 in
09:36 44.5 °F 42.0 °F 29.41 in SSW 1.6 mph 2.3 mph 91 % 0.00 in
09:41 44.7 °F 42.2 °F 29.40 in WSW 1.2 mph 3.0 mph 91 % 0.00 in
09:46 44.8 °F 42.3 °F 29.40 in WSW 0.1 mph 1.2 mph 91 % 0.00 in
09:51 45.0 °F 42.5 °F 29.40 in WSW 0.1 mph 2.3 mph 91 % 0.00 in
09:56 45.2 °F 42.7 °F 29.40 in SW 0.7 mph 2.3 mph 91 % 0.00 in
10:01 45.4 °F 42.9 °F 29.40 in SW 0.2 mph 1.2 mph 91 % 0.00 in
10:06 45.5 °F 43.0 °F 29.40 in SW 0.7 mph 1.2 mph 91 % 0.00 in
10:11 45.6 °F 43.1 °F 29.40 in Calm   1.2 mph 91 % 0.00 in
10:16 45.7 °F 43.2 °F 29.41 in SW 0.2 mph 1.2 mph 91 % 0.00 in
10:21 45.8 °F 43.3 °F 29.39 in SSW 1.5 mph 3.0 mph 91 % 0.00 in
10:26 46.0 °F 43.5 °F 29.39 in SSW 0.2 mph 1.2 mph 91 % 0.00 in
10:31 46.1 °F 43.9 °F 29.39 in SSW 0.5 mph 3.5 mph 92 % 0.00 in
10:36 46.1 °F 43.9 °F 29.39 in SSW 1.7 mph 3.5 mph 92 % 0.00 in
10:41 46.2 °F 44.0 °F 29.39 in SSW 0.9 mph 3.5 mph 92 % 0.01 in
10:46 46.3 °F 44.1 °F 29.37 in Calm     92 % 0.01 in
10:51 46.4 °F 44.2 °F 29.37 in Calm   1.2 mph 92 % 0.01 in
10:56 46.5 °F 44.3 °F 29.37 in SSW 1.1 mph 3.5 mph 92 % 0.01 in
11:01 46.7 °F 44.8 °F 29.36 in South 2.1 mph 3.5 mph 93 % 0.01 in
11:07 46.8 °F 44.9 °F 29.36 in SSW 2.0 mph 3.5 mph 93 % 0.01 in
11:12 46.8 °F 44.9 °F 29.35 in SSE 0.9 mph 3.5 mph 93 % 0.01 in
11:17 46.8 °F 44.9 °F 29.34 in South 2.9 mph 3.5 mph 93 % 0.01 in
11:22 46.8 °F 44.9 °F 29.34 in South 0.5 mph 3.5 mph 93 % 0.01 in
11:27 46.7 °F 44.8 °F 29.34 in South 1.6 mph 3.5 mph 93 % 0.01 in
11:32 46.7 °F 44.8 °F 29.33 in South 1.6 mph 3.5 mph 93 % 0.01 in
11:37 46.6 °F 44.7 °F 29.33 in South 2.5 mph 4.6 mph 93 % 0.00 in
11:42 46.5 °F 44.6 °F 29.34 in SSW 1.2 mph 3.5 mph 93 % 0.00 in
11:47 46.5 °F 44.6 °F 29.33 in South 0.6 mph 2.3 mph 93 % 0.00 in
11:52 46.5 °F 44.6 °F 29.33 in SSE 0.6 mph 3.5 mph 93 % 0.00 in
11:57 46.5 °F 44.6 °F 29.33 in SSW 2.0 mph 4.6 mph 93 % 0.00 in
12:02 46.5 °F 44.6 °F 29.33 in SSW 3.5 mph 8.1 mph 93 % 0.00 in
12:07 46.6 °F 44.7 °F 29.33 in South 5.3 mph 6.0 mph 93 % 0.00 in
12:12 46.6 °F 44.7 °F 29.32 in South 2.1 mph 4.0 mph 93 % 0.00 in
12:17 46.7 °F 44.8 °F 29.32 in South 0.5 mph 2.0 mph 93 % 0.00 in
12:21 46.7 °F 44.8 °F 29.32 in SW 2.0 mph 3.5 mph 93 % 0.00 in
12:26 46.8 °F 44.9 °F 29.31 in SW 0.6 mph 3.5 mph 93 % 0.00 in
12:31 47.0 °F 45.1 °F 29.31 in SSW 3.0 mph 4.6 mph 93 % 0.00 in
12:36 47.2 °F 45.3 °F 29.31 in South 3.9 mph 6.9 mph 93 % 0.00 in
12:41 47.3 °F 45.1 °F 29.30 in SSW 4.4 mph 6.9 mph 92 % 0.00 in
12:46 47.5 °F 45.3 °F 29.30 in SW 2.8 mph 5.0 mph 92 % 0.00 in
12:51 47.8 °F 45.3 °F 29.30 in South 4.2 mph 7.0 mph 91 % 0.00 in
12:56 48.0 °F 45.2 °F 29.30 in SSW 3.6 mph 8.1 mph 90 % 0.00 in
13:01 48.1 °F 45.0 °F 29.30 in South 3.0 mph 9.2 mph 89 % 0.00 in
13:06 48.2 °F 45.1 °F 29.29 in South 1.9 mph 6.0 mph 89 % 0.00 in
13:12 48.2 °F 45.1 °F 29.30 in South 3.7 mph 5.8 mph 89 % 0.00 in
13:17 48.3 °F 45.2 °F 29.29 in SSW 5.3 mph 11.5 mph 89 % 0.00 in
13:22 48.5 °F 45.4 °F 29.29 in SW 3.6 mph 6.9 mph 89 % 0.00 in
13:27 48.9 °F 45.8 °F 29.29 in SSW 3.1 mph 5.8 mph 89 % 0.00 in
13:32 49.4 °F 46.0 °F 29.28 in SSW 5.2 mph 9.2 mph 88 % 0.00 in
13:37 49.9 °F 46.2 °F 29.28 in SSW 7.9 mph 13.8 mph 87 % 0.00 in
13:42 50.2 °F 46.2 °F 29.27 in SSW 3.4 mph 5.8 mph 86 % 0.00 in
13:47 50.2 °F 45.6 °F 29.28 in SSW 4.9 mph 7.0 mph 84 % 0.00 in
13:52 50.2 °F 45.6 °F 29.28 in South 6.9 mph 10.4 mph 84 % 0.00 in
13:54 50.2 °F 45.6 °F 29.28 in SW 5.4 mph 6.9 mph 84 % 0.00 in
14:00 50.2 °F 45.2 °F 29.28 in SW 7.0 mph 12.7 mph 83 % 0.00 in
14:05 50.1 °F 45.1 °F 29.28 in SSW 4.1 mph 7.0 mph 83 % 0.00 in
14:10 50.2 °F 45.6 °F 29.28 in SSW 7.3 mph 8.1 mph 84 % 0.00 in
14:15 50.4 °F 45.7 °F 29.28 in WSW 4.5 mph 9.2 mph 84 % 0.00 in
14:20 50.8 °F 45.8 °F 29.28 in WSW 3.6 mph 6.9 mph 83 % 0.00 in
14:25 51.2 °F 46.2 °F 29.28 in WSW 4.7 mph 11.5 mph 83 % 0.00 in
14:30 51.5 °F 45.9 °F 29.28 in SW 3.6 mph 8.0 mph 81 % 0.00 in
14:35 51.9 °F 45.6 °F 29.29 in SW 4.2 mph 8.1 mph 79 % 0.00 in
14:40 52.1 °F 44.8 °F 29.29 in WSW 7.7 mph 12.7 mph 76 % 0.00 in
14:45 52.1 °F 43.3 °F 29.30 in WSW 4.0 mph 11.5 mph 72 % 0.00 in
14:50 51.9 °F 40.5 °F 29.30 in WSW 9.0 mph 12.0 mph 65 % 0.00 in
14:55 51.9 °F 38.0 °F 29.30 in WSW 7.9 mph 18.4 mph 59 % 0.00 in
15:00 51.8 °F 37.0 °F 29.30 in SW 9.1 mph 19.6 mph 57 % 0.00 in
15:05 51.7 °F 36.5 °F 29.31 in SW 5.6 mph 11.5 mph 56 % 0.00 in
15:10 51.5 °F 36.3 °F 29.32 in SW 11.1 mph 16.1 mph 56 % 0.00 in
15:15 51.2 °F 36.0 °F 29.31 in WNW 8.2 mph 17.3 mph 56 % 0.00 in
15:20 50.9 °F 35.3 °F 29.31 in West 7.3 mph 18.4 mph 55 % 0.00 in
15:26 50.7 °F 35.6 °F 29.31 in West 11.6 mph 14.0 mph 56 % 0.00 in
15:31 50.6 °F 35.0 °F 29.32 in WNW 8.3 mph 14.0 mph 55 % 0.00 in
15:32 50.6 °F 34.6 °F 29.32 in WNW 4.7 mph 11.5 mph 54 % 0.00 in
15:37 50.5 °F 35.4 °F 29.32 in WNW 6.9 mph 19.6 mph 56 % 0.00 in
15:38 50.5 °F 35.4 °F 29.32 in WSW 7.5 mph 10.4 mph 56 % 0.00 in
15:43 50.0 °F 34.9 °F 29.32 in WSW 10.4 mph 21.9 mph 56 % 0.00 in
15:48 49.5 °F 34.4 °F 29.33 in WSW 7.3 mph 20.7 mph 56 % 0.00 in
15:53 49.1 °F 34.5 °F 29.34 in West 8.5 mph 16.1 mph 57 % 0.00 in
15:58 48.7 °F 33.2 °F 29.34 in West 16.6 mph 19.6 mph 55 % 0.00 in
16:04 48.5 °F 32.6 °F 29.34 in WSW 10.8 mph 13.8 mph 54 % 0.00 in
16:09 48.3 °F 31.9 °F 29.34 in West 12.1 mph 19.0 mph 53 % 0.00 in
16:14 48.1 °F 31.8 °F 29.35 in WSW 11.6 mph 18.0 mph 53 % 0.00 in
16:19 47.9 °F 31.6 °F 29.35 in WSW 9.9 mph 13.8 mph 53 % 0.00 in
16:24 47.8 °F 31.5 °F 29.35 in West 10.3 mph 18.4 mph 53 % 0.00 in
16:29 47.7 °F 31.9 °F 29.35 in SW 8.5 mph 17.0 mph 54 % 0.00 in
16:35 47.6 °F 31.8 °F 29.35 in WSW 7.5 mph 16.1 mph 54 % 0.00 in
16:40 47.5 °F 31.7 °F 29.35 in WNW 13.3 mph 23.0 mph 54 % 0.00 in
16:45 47.3 °F 31.5 °F 29.36 in WSW 7.1 mph 17.3 mph 54 % 0.00 in
16:50 47.1 °F 31.3 °F 29.35 in West 10.9 mph 19.6 mph 54 % 0.00 in
16:55 46.9 °F 30.6 °F 29.36 in WSW 6.3 mph 19.6 mph 53 % 0.00 in
17:00 46.7 °F 31.4 °F 29.36 in SW 8.9 mph 24.2 mph 55 % 0.00 in
17:05 46.5 °F 31.6 °F 29.36 in WSW 8.8 mph 19.6 mph 56 % 0.00 in
17:10 46.3 °F 32.7 °F 29.36 in WNW 2.9 mph 9.2 mph 59 % 0.00 in
17:15 46.0 °F 32.9 °F 29.37 in SW 8.9 mph 15.0 mph 60 % 0.00 in
17:25 45.4 °F 32.7 °F 29.38 in WNW 11.6 mph 16.1 mph 61 % 0.00 in
17:30 45.2 °F 32.5 °F 29.38 in West 7.8 mph 16.0 mph 61 % 0.00 in
17:35 45.1 °F 32.0 °F 29.38 in West 13.5 mph 19.6 mph 60 % 0.00 in
17:46 44.9 °F 31.0 °F 29.39 in WNW 10.7 mph 17.3 mph 58 % 0.00 in
17:51 44.8 °F 31.3 °F 29.39 in West 6.8 mph 17.3 mph 59 % 0.00 in
17:56 44.7 °F 30.8 °F 29.39 in WSW 9.9 mph 24.2 mph 58 % 0.00 in
18:01 44.7 °F 30.8 °F 29.39 in WSW 5.6 mph 12.7 mph 58 % 0.00 in
18:06 44.7 °F 30.8 °F 29.39 in West 10.0 mph 18.4 mph 58 % 0.00 in
18:11 44.6 °F 30.7 °F 29.40 in WSW 8.5 mph 13.8 mph 58 % 0.00 in
18:16 44.5 °F 31.1 °F 29.40 in West 3.6 mph 9.2 mph 59 % 0.00 in
18:21 44.4 °F 31.4 °F 29.40 in NW 8.6 mph 13.8 mph 60 % 0.00 in
18:26 44.3 °F 30.9 °F 29.40 in SW 9.9 mph 19.0 mph 59 % 0.00 in
18:31 44.2 °F 31.2 °F 29.40 in WNW 11.0 mph 19.6 mph 60 % 0.00 in
18:36 44.2 °F 30.8 °F 29.41 in WNW 10.5 mph 17.0 mph 59 % 0.00 in
18:41 44.2 °F 31.2 °F 29.41 in WNW 10.8 mph 16.1 mph 60 % 0.00 in
18:51 44.2 °F 31.2 °F 29.41 in West 8.5 mph 11.5 mph 60 % 0.00 in
18:56 44.2 °F 31.2 °F 29.41 in WSW 6.7 mph 15.0 mph 60 % 0.00 in
18:57 44.2 °F 31.2 °F 29.41 in WNW 13.0 mph 19.6 mph 60 % 0.00 in
19:01 44.1 °F 31.1 °F 29.41 in WNW 8.8 mph 15.0 mph 60 % 0.00 in
19:04 44.1 °F 31.5 °F 29.41 in WSW 7.0 mph 21.0 mph 61 % 0.00 in
19:05 44.1 °F 31.5 °F 29.41 in West 6.3 mph 15.0 mph 61 % 0.00 in
19:10 44.0 °F 31.8 °F 29.41 in West 5.7 mph 8.0 mph 62 % 0.00 in
19:16 44.0 °F 31.8 °F 29.41 in SW 7.0 mph 12.7 mph 62 % 0.00 in
19:21 44.0 °F 31.8 °F 29.41 in WSW 11.6 mph 17.3 mph 62 % 0.00 in
19:26 44.0 °F 31.8 °F 29.42 in WSW 8.7 mph 12.7 mph 62 % 0.00 in
19:31 44.0 °F 32.2 °F 29.42 in WSW 3.5 mph 10.4 mph 63 % 0.00 in
19:36 43.9 °F 32.5 °F 29.42 in West 10.4 mph 16.1 mph 64 % 0.00 in
19:41 43.9 °F 32.5 °F 29.41 in WSW 7.0 mph 17.0 mph 64 % 0.00 in
19:46 43.8 °F 32.8 °F 29.42 in SW 9.1 mph 13.8 mph 65 % 0.00 in
19:51 43.7 °F 32.7 °F 29.42 in SSW 5.1 mph 16.1 mph 65 % 0.00 in
19:56 43.7 °F 32.7 °F 29.42 in WNW 3.7 mph 7.0 mph 65 % 0.00 in
20:01 43.6 °F 32.6 °F 29.42 in WSW 11.1 mph 15.0 mph 65 % 0.00 in
20:06 43.7 °F 32.7 °F 29.42 in West 9.9 mph 16.1 mph 65 % 0.00 in
20:11 43.6 °F 32.6 °F 29.41 in SSW 7.0 mph 11.5 mph 65 % 0.00 in
20:16 43.6 °F 32.6 °F 29.42 in SW 8.7 mph 18.4 mph 65 % 0.00 in
20:22 43.6 °F 32.6 °F 29.42 in WSW 5.3 mph 8.1 mph 65 % 0.00 in
20:27 43.6 °F 32.6 °F 29.42 in West 5.4 mph 9.2 mph 65 % 0.00 in
20:32 43.5 °F 32.5 °F 29.43 in WSW 6.4 mph 15.0 mph 65 % 0.00 in
20:37 43.5 °F 32.5 °F 29.43 in SW 7.4 mph 19.6 mph 65 % 0.00 in
20:42 43.5 °F 32.5 °F 29.43 in WSW 8.6 mph 16.1 mph 65 % 0.00 in
20:47 43.5 °F 32.5 °F 29.43 in West 7.1 mph 11.5 mph 65 % 0.00 in
20:52 43.5 °F 32.5 °F 29.43 in WNW 6.7 mph 15.0 mph 65 % 0.00 in
20:57 43.4 °F 32.4 °F 29.44 in West 10.0 mph 15.0 mph 65 % 0.00 in
21:02 43.4 °F 32.4 °F 29.44 in West 6.5 mph 12.0 mph 65 % 0.00 in
21:07 43.4 °F 32.4 °F 29.44 in SW 4.8 mph 15.0 mph 65 % 0.00 in
21:12 43.4 °F 32.4 °F 29.45 in West 3.8 mph 8.1 mph 65 % 0.00 in
21:17 43.4 °F 32.4 °F 29.45 in NW 6.6 mph 12.0 mph 65 % 0.00 in
21:22 43.4 °F 32.8 °F 29.45 in WNW 8.6 mph 13.8 mph 66 % 0.00 in
21:27 43.3 °F 32.7 °F 29.45 in West 5.7 mph 11.5 mph 66 % 0.00 in
21:32 43.3 °F 32.7 °F 29.46 in WSW 7.8 mph 13.8 mph 66 % 0.00 in
21:37 43.3 °F 32.7 °F 29.46 in NW 8.4 mph 11.0 mph 66 % 0.00 in
21:42 43.4 °F 32.4 °F 29.46 in West 6.8 mph 13.8 mph 65 % 0.00 in
21:47 43.4 °F 32.8 °F 29.47 in SW 9.1 mph 11.5 mph 66 % 0.00 in
21:52 43.4 °F 32.4 °F 29.47 in WSW 8.7 mph 18.0 mph 65 % 0.00 in
21:58 43.4 °F 32.4 °F 29.48 in WNW 12.3 mph 15.0 mph 65 % 0.00 in
22:03 43.4 °F 32.4 °F 29.48 in WSW 8.6 mph 11.5 mph 65 % 0.00 in
22:08 43.3 °F 32.3 °F 29.48 in WSW 12.0 mph 17.0 mph 65 % 0.00 in
22:14 43.3 °F 32.7 °F 29.48 in WSW 6.1 mph 12.7 mph 66 % 0.00 in
22:19 43.3 °F 32.7 °F 29.49 in WNW 4.5 mph 8.0 mph 66 % 0.00 in
22:24 43.1 °F 32.9 °F 29.49 in SW 7.0 mph 8.1 mph 67 % 0.00 in
22:25 43.1 °F 32.9 °F 29.49 in WNW 6.2 mph 8.1 mph 67 % 0.00 in
22:30 43.0 °F 32.8 °F 29.49 in West 7.8 mph 13.8 mph 67 % 0.00 in
22:35 42.9 °F 32.7 °F 29.49 in West 4.2 mph 9.0 mph 67 % 0.00 in
22:40 42.8 °F 33.0 °F 29.50 in WSW 10.5 mph 16.1 mph 68 % 0.00 in
22:45 42.8 °F 33.0 °F 29.50 in West 7.1 mph 13.0 mph 68 % 0.00 in
22:50 42.8 °F 32.6 °F 29.50 in West 6.8 mph 11.5 mph 67 % 0.00 in
22:55 42.8 °F 32.6 °F 29.50 in West 8.7 mph 11.5 mph 67 % 0.00 in
23:00 42.8 °F 33.0 °F 29.50 in WSW 6.2 mph 12.7 mph 68 % 0.00 in
23:05 42.8 °F 32.6 °F 29.50 in WSW 8.1 mph 13.8 mph 67 % 0.00 in
23:10 42.7 °F 32.9 °F 29.51 in West 9.2 mph 15.0 mph 68 % 0.00 in
23:15 42.7 °F 32.9 °F 29.51 in WSW 7.6 mph 11.0 mph 68 % 0.00 in
23:21 42.6 °F 32.8 °F 29.51 in WNW 6.2 mph 10.4 mph 68 % 0.00 in
23:26 42.6 °F 33.1 °F 29.51 in WNW 7.1 mph 12.7 mph 69 % 0.00 in
23:31 42.5 °F 32.7 °F 29.51 in West 7.3 mph 19.6 mph 68 % 0.00 in
23:36 42.4 °F 32.6 °F 29.51 in WSW 5.1 mph 15.0 mph 68 % 0.00 in
23:41 42.4 °F 32.6 °F 29.51 in West 7.2 mph 12.7 mph 68 % 0.00 in
23:46 42.3 °F 32.5 °F 29.51 in NW 4.5 mph 10.4 mph 68 % 0.00 in
23:51 42.2 °F 32.4 °F 29.52 in NW 7.1 mph 11.5 mph 68 % 0.00 in
23:56 42.2 °F 32.0 °F 29.51 in WSW 9.2 mph 13.8 mph 67 % 0.00 in
Crab Meadow Weather
Compliments of Weather Underground - 3 mb

Script developed by  Jim McMurry - jmcmurry@mwt.net Adapted for the template by  Wim van der Kuil - Leuven-Template.eu

Weather Terms: Dense Fog Advisory - Widespread dense fog reducing visibility to less than 1/4 mile.